createdAt,value
2023-05-14T00:00:27.485Z,23.8
2023-05-14T00:01:34.732Z,23.8
2023-05-14T00:02:41.982Z,23.8
2023-05-14T00:06:50.031Z,23.8
2023-05-14T00:10:05.946Z,23.8
2023-05-14T00:11:12.742Z,23.8
2023-05-14T00:12:19.495Z,23.8
2023-05-14T00:13:26.280Z,23.8
2023-05-14T00:14:33.046Z,23.8
2023-05-14T00:15:39.831Z,23.8
2023-05-14T00:16:46.604Z,23.8
2023-05-14T00:17:53.388Z,23.8
2023-05-14T00:19:00.157Z,23.8
2023-05-14T00:20:06.944Z,23.8
2023-05-14T00:21:13.710Z,23.7
2023-05-14T00:22:20.490Z,23.7
2023-05-14T00:23:27.293Z,23.7
2023-05-14T00:24:34.048Z,23.7
2023-05-14T00:25:40.828Z,23.7
2023-05-14T00:26:47.615Z,23.7
2023-05-14T00:27:54.387Z,23.7
2023-05-14T00:29:01.179Z,23.7
2023-05-14T00:30:07.976Z,23.7
2023-05-14T00:31:14.722Z,23.7
2023-05-14T00:32:21.496Z,23.7
2023-05-14T00:33:28.304Z,23.7
2023-05-14T00:34:35.059Z,23.7
2023-05-14T00:35:41.839Z,23.7
2023-05-14T00:36:48.635Z,23.7
2023-05-14T00:38:21.919Z,23.7
2023-05-14T00:40:00.662Z,23.7
2023-05-14T00:41:39.403Z,23.7
2023-05-14T00:43:18.155Z,23.7
2023-05-14T00:44:56.865Z,23.6
2023-05-14T00:46:04.113Z,23.6
2023-05-14T00:47:11.382Z,23.6
2023-05-14T00:48:50.123Z,23.6
2023-05-14T00:50:28.845Z,23.6
2023-05-14T00:52:07.581Z,23.6
2023-05-14T00:53:46.335Z,23.6
2023-05-14T00:55:25.073Z,23.6
2023-05-14T00:57:03.802Z,23.6
2023-05-14T01:01:11.851Z,23.6
2023-05-14T01:02:31.285Z,23.6
2023-05-14T01:04:28.266Z,23.5
2023-05-14T01:06:07.004Z,23.6
2023-05-14T01:07:45.737Z,23.5
2023-05-14T01:09:24.475Z,23.5
2023-05-14T01:11:03.243Z,23.5
2023-05-14T01:12:42.011Z,23.5
2023-05-14T01:14:20.680Z,23.5
2023-05-14T01:15:59.417Z,23.5
2023-05-14T01:17:38.167Z,23.5
2023-05-14T01:19:16.910Z,23.5
2023-05-14T01:20:24.169Z,23.5
2023-05-14T01:21:31.409Z,23.5
2023-05-14T01:23:10.131Z,23.5
2023-05-14T01:24:48.874Z,23.5
2023-05-14T01:26:27.615Z,23.5
2023-05-14T01:28:06.359Z,23.5
2023-05-14T01:29:45.090Z,23.5
2023-05-14T01:31:23.876Z,23.4
2023-05-14T01:33:02.570Z,23.4
2023-05-14T01:34:41.297Z,23.4
2023-05-14T01:36:20.036Z,23.4
2023-05-14T01:37:27.336Z,23.4
2023-05-14T01:38:34.549Z,23.4
2023-05-14T01:40:13.314Z,23.4
2023-05-14T01:44:21.340Z,23.4
2023-05-14T01:47:37.921Z,23.4
2023-05-14T01:49:32.894Z,23.4
2023-05-14T01:51:11.633Z,23.4
2023-05-14T01:52:50.388Z,23.4
2023-05-14T01:53:57.637Z,23.4
2023-05-14T01:55:04.888Z,23.3
2023-05-14T01:56:43.628Z,23.3
2023-05-14T01:58:22.347Z,23.3
2023-05-14T02:00:01.097Z,23.3
2023-05-14T02:01:39.840Z,23.3
2023-05-14T02:03:18.568Z,23.3
2023-05-14T02:04:57.306Z,23.3
2023-05-14T02:06:36.054Z,23.3
2023-05-14T02:08:14.800Z,23.3
2023-05-14T02:09:53.535Z,23.3
2023-05-14T02:11:00.795Z,23.3
2023-05-14T02:12:08.042Z,23.3
2023-05-14T02:13:46.777Z,23.3
2023-05-14T02:15:25.540Z,23.2
2023-05-14T02:17:04.250Z,23.3
2023-05-14T02:18:42.986Z,23.2
2023-05-14T02:20:21.730Z,23.2
2023-05-14T02:22:00.463Z,23.2
2023-05-14T02:23:39.200Z,23.2
2023-05-14T02:25:17.951Z,23.2
2023-05-14T02:27:28.826Z,23.2
2023-05-14T02:29:25.985Z,23.2
2023-05-14T02:32:41.914Z,23.2
2023-05-14T02:33:48.702Z,23.2
2023-05-14T02:34:55.486Z,23.2
2023-05-14T02:36:02.238Z,23.2
2023-05-14T02:37:09.127Z,23.2
2023-05-14T02:38:15.828Z,23.2
2023-05-14T02:39:22.575Z,23.2
2023-05-14T02:40:29.352Z,23.1
2023-05-14T02:41:36.178Z,23.1
2023-05-14T02:42:42.921Z,23.1
2023-05-14T02:43:49.691Z,23.1
2023-05-14T02:44:56.427Z,23.1
2023-05-14T02:46:03.139Z,23.1
2023-05-14T02:47:09.856Z,23.1
2023-05-14T02:48:16.581Z,23.1
2023-05-14T02:49:23.295Z,23.1
2023-05-14T02:50:30.085Z,23.1
2023-05-14T02:51:36.800Z,23.1
2023-05-14T02:52:43.581Z,23.1
2023-05-14T02:53:50.368Z,23.1
2023-05-14T02:54:57.144Z,23.1
2023-05-14T02:56:03.865Z,23.1
2023-05-14T02:57:10.646Z,23.1
2023-05-14T02:58:17.371Z,23.1
2023-05-14T02:59:24.145Z,23.1
2023-05-14T03:00:31.372Z,23.1
2023-05-14T03:01:38.633Z,23.1
2023-05-14T03:03:17.357Z,23
2023-05-14T03:04:56.090Z,23
2023-05-14T03:06:34.814Z,23
2023-05-14T03:08:13.553Z,23
2023-05-14T03:09:52.292Z,23
2023-05-14T03:11:31.018Z,23
2023-05-14T03:13:09.746Z,23
2023-05-14T03:14:48.482Z,23
2023-05-14T03:16:27.207Z,23
2023-05-14T03:17:34.467Z,23
2023-05-14T03:18:41.718Z,23
2023-05-14T03:22:49.731Z,23
2023-05-14T03:26:07.137Z,22.9
2023-05-14T03:29:23.089Z,22.9
2023-05-14T03:30:29.835Z,22.9
2023-05-14T03:31:36.620Z,22.9
2023-05-14T03:32:43.391Z,22.9
2023-05-14T03:33:50.171Z,22.9
2023-05-14T03:34:56.953Z,22.9
2023-05-14T03:36:03.731Z,22.9
2023-05-14T03:37:10.503Z,22.9
2023-05-14T03:38:17.284Z,22.9
2023-05-14T03:39:24.065Z,22.9
2023-05-14T03:40:30.846Z,22.9
2023-05-14T03:41:37.619Z,22.9
2023-05-14T03:42:44.407Z,22.9
2023-05-14T03:43:51.180Z,22.9
2023-05-14T03:44:57.972Z,22.9
2023-05-14T03:46:04.736Z,22.9
2023-05-14T03:47:11.524Z,22.9
2023-05-14T03:48:18.301Z,22.9
2023-05-14T03:49:25.077Z,22.9
2023-05-14T03:50:31.862Z,22.9
2023-05-14T03:51:38.637Z,22.8
2023-05-14T03:52:45.402Z,22.8
2023-05-14T03:53:52.200Z,22.8
2023-05-14T03:54:58.961Z,22.8
2023-05-14T03:56:05.742Z,22.8
2023-05-14T03:58:17.963Z,22.8
2023-05-14T03:59:56.700Z,22.8
2023-05-14T04:01:03.961Z,22.8
2023-05-14T04:02:11.217Z,22.8
2023-05-14T04:03:49.969Z,22.8
2023-05-14T04:05:28.685Z,22.8
2023-05-14T04:07:07.437Z,22.8
2023-05-14T04:08:46.184Z,22.8
2023-05-14T04:10:24.902Z,22.8
2023-05-14T04:12:03.648Z,22.8
2023-05-14T04:13:42.396Z,22.8
2023-05-14T04:15:21.122Z,22.8
2023-05-14T04:16:59.862Z,22.8
2023-05-14T04:18:39.605Z,22.7
2023-05-14T04:21:55.527Z,22.8
2023-05-14T04:23:02.326Z,22.7
2023-05-14T04:24:09.091Z,22.7
2023-05-14T04:25:15.866Z,22.7
2023-05-14T04:26:22.653Z,22.7
2023-05-14T04:27:29.427Z,22.7
2023-05-14T04:28:36.151Z,22.7
2023-05-14T04:29:42.926Z,22.7
2023-05-14T04:30:49.708Z,22.7
2023-05-14T04:31:56.482Z,22.7
2023-05-14T04:33:03.281Z,22.7
2023-05-14T04:34:10.050Z,22.7
2023-05-14T04:35:16.828Z,22.7
2023-05-14T04:36:23.606Z,22.7
2023-05-14T04:37:30.395Z,22.7
2023-05-14T04:38:37.168Z,22.7
2023-05-14T04:39:43.973Z,22.7
2023-05-14T04:40:50.732Z,22.7
2023-05-14T04:41:57.510Z,22.7
2023-05-14T04:43:04.337Z,22.7
2023-05-14T04:44:11.073Z,22.7
2023-05-14T04:45:17.854Z,22.7
2023-05-14T04:46:24.632Z,22.7
2023-05-14T04:47:31.438Z,22.7
2023-05-14T04:48:38.128Z,22.7
2023-05-14T04:50:50.356Z,22.7
2023-05-14T04:51:57.561Z,22.7
2023-05-14T04:53:04.829Z,22.7
2023-05-14T04:54:43.570Z,22.7
2023-05-14T04:56:22.301Z,22.6
2023-05-14T04:58:01.031Z,22.6
2023-05-14T04:59:39.763Z,22.7
2023-05-14T05:01:18.513Z,22.6
2023-05-14T05:02:57.249Z,22.7
2023-05-14T05:04:35.978Z,22.6
2023-05-14T05:06:14.724Z,22.6
2023-05-14T05:07:53.468Z,22.6
2023-05-14T05:09:00.725Z,22.6
2023-05-14T05:12:01.511Z,22.6
2023-05-14T05:15:17.428Z,22.6
2023-05-14T05:16:24.221Z,22.6
2023-05-14T05:17:30.986Z,22.6
2023-05-14T05:18:37.769Z,22.6
2023-05-14T05:19:44.576Z,22.6
2023-05-14T05:20:51.325Z,22.6
2023-05-14T05:21:58.106Z,22.6
2023-05-14T05:23:04.883Z,22.6
2023-05-14T05:24:11.659Z,22.6
2023-05-14T05:25:18.439Z,22.6
2023-05-14T05:26:25.225Z,22.6
2023-05-14T05:27:31.998Z,22.6
2023-05-14T05:28:38.776Z,22.6
2023-05-14T05:29:45.562Z,22.6
2023-05-14T05:30:52.356Z,22.6
2023-05-14T05:31:59.118Z,22.6
2023-05-14T05:33:05.904Z,22.6
2023-05-14T05:34:12.675Z,22.6
2023-05-14T05:35:19.455Z,22.6
2023-05-14T05:36:26.234Z,22.6
2023-05-14T05:37:33.006Z,22.6
2023-05-14T05:38:39.784Z,22.6
2023-05-14T05:39:46.569Z,22.6
2023-05-14T05:40:53.354Z,22.6
2023-05-14T05:42:00.151Z,22.6
2023-05-14T05:43:33.463Z,22.6
2023-05-14T05:44:40.723Z,22.6
2023-05-14T05:46:19.475Z,22.6
2023-05-14T05:47:58.220Z,22.6
2023-05-14T05:49:36.948Z,22.5
2023-05-14T05:51:15.691Z,22.6
2023-05-14T05:52:54.423Z,22.6
2023-05-14T05:54:33.168Z,22.6
2023-05-14T05:56:11.893Z,22.6
2023-05-14T05:57:50.628Z,22.6
2023-05-14T05:59:29.365Z,22.6
2023-05-14T06:00:36.628Z,22.6
2023-05-14T06:01:43.876Z,22.6
2023-05-14T06:05:51.926Z,22.6
2023-05-14T06:09:07.884Z,22.6
2023-05-14T06:10:14.608Z,22.6
2023-05-14T06:11:21.399Z,22.6
2023-05-14T06:12:28.190Z,22.6
2023-05-14T06:13:34.958Z,22.6
2023-05-14T06:14:41.731Z,22.6
2023-05-14T06:15:48.512Z,22.6
2023-05-14T06:16:55.289Z,22.6
2023-05-14T06:18:02.073Z,22.6
2023-05-14T06:19:08.845Z,22.6
2023-05-14T06:20:15.655Z,22.6
2023-05-14T06:21:22.416Z,22.6
2023-05-14T06:22:29.178Z,22.6
2023-05-14T06:23:35.953Z,22.6
2023-05-14T06:24:42.740Z,22.6
2023-05-14T06:25:49.517Z,22.6
2023-05-14T06:26:56.296Z,22.6
2023-05-14T06:28:03.080Z,22.6
2023-05-14T06:29:09.846Z,22.6
2023-05-14T06:30:16.638Z,22.6
2023-05-14T06:31:23.420Z,22.6
2023-05-14T06:32:30.206Z,22.6
2023-05-14T06:33:36.971Z,22.6
2023-05-14T06:34:43.749Z,22.6
2023-05-14T06:35:50.552Z,22.6
2023-05-14T06:37:23.925Z,22.6
2023-05-14T06:39:02.680Z,22.6
2023-05-14T06:40:41.419Z,22.6
2023-05-14T06:42:20.147Z,22.6
2023-05-14T06:43:58.878Z,22.6
2023-05-14T06:45:06.134Z,22.6
2023-05-14T06:46:13.392Z,22.6
2023-05-14T06:47:52.134Z,22.6
2023-05-14T06:49:30.887Z,22.6
2023-05-14T06:51:09.616Z,22.6
2023-05-14T06:52:48.350Z,22.6
2023-05-14T06:54:27.085Z,22.6
2023-05-14T06:56:05.815Z,22.6
2023-05-14T07:00:13.869Z,22.6
2023-05-14T07:01:33.288Z,22.6
2023-05-14T07:03:30.292Z,22.6
2023-05-14T07:05:09.032Z,22.6
2023-05-14T07:06:47.761Z,22.6
2023-05-14T07:08:26.500Z,22.6
2023-05-14T07:10:05.245Z,22.6
2023-05-14T07:11:43.991Z,22.6
2023-05-14T07:13:22.734Z,22.6
2023-05-14T07:15:01.455Z,22.6
2023-05-14T07:16:40.207Z,22.7
2023-05-14T07:18:18.932Z,22.7
2023-05-14T07:19:57.680Z,22.7
2023-05-14T07:21:04.889Z,22.7
2023-05-14T07:22:12.080Z,22.7
2023-05-14T07:23:50.813Z,22.7
2023-05-14T07:25:29.553Z,22.7
2023-05-14T07:27:08.307Z,22.7
2023-05-14T07:28:47.051Z,22.7
2023-05-14T07:30:25.775Z,22.7
2023-05-14T07:32:04.538Z,22.7
2023-05-14T07:33:43.272Z,22.7
2023-05-14T07:35:22.015Z,22.7
2023-05-14T07:37:00.767Z,22.7
2023-05-14T07:38:08.024Z,22.7
2023-05-14T07:39:15.276Z,22.7
2023-05-14T07:43:23.321Z,22.7
2023-05-14T07:46:39.818Z,22.8
2023-05-14T07:48:26.644Z,22.8
2023-05-14T07:50:05.393Z,22.8
2023-05-14T07:51:44.171Z,22.8
2023-05-14T07:53:22.880Z,22.8
2023-05-14T07:54:35.014Z,22.8
2023-05-14T07:55:42.258Z,22.8
2023-05-14T07:57:20.997Z,22.8
2023-05-14T07:58:59.741Z,22.9
2023-05-14T08:00:38.476Z,22.9
2023-05-14T08:02:17.215Z,22.9
2023-05-14T08:03:55.961Z,22.9
2023-05-14T08:05:34.690Z,22.9
2023-05-14T08:07:13.478Z,22.9
2023-05-14T08:08:52.177Z,22.9
2023-05-14T08:10:30.914Z,22.9
2023-05-14T08:11:38.169Z,22.9
2023-05-14T08:12:45.416Z,23
2023-05-14T08:14:24.161Z,23
2023-05-14T08:16:02.888Z,23
2023-05-14T08:17:41.654Z,23
2023-05-14T08:19:20.344Z,23
2023-05-14T08:20:59.076Z,23
2023-05-14T08:22:37.828Z,23
2023-05-14T08:24:16.544Z,23
2023-05-14T08:28:06.160Z,23.1
2023-05-14T08:29:12.711Z,23.1
2023-05-14T08:30:19.237Z,23.1
2023-05-14T08:31:25.787Z,23.1
2023-05-14T08:32:32.328Z,23.1
2023-05-14T08:33:38.776Z,23.1
2023-05-14T08:34:45.288Z,23.1
2023-05-14T08:35:51.836Z,23.1
2023-05-14T08:36:58.370Z,23.2
2023-05-14T08:38:04.911Z,23.2
2023-05-14T08:39:11.474Z,23.2
2023-05-14T08:40:18.002Z,23.2
2023-05-14T08:41:24.542Z,23.2
2023-05-14T08:42:31.075Z,23.2
2023-05-14T08:43:37.599Z,23.2
2023-05-14T08:44:44.149Z,23.2
2023-05-14T08:45:50.682Z,23.3
2023-05-14T08:46:57.217Z,23.3
2023-05-14T08:48:03.750Z,23.3
2023-05-14T08:49:10.300Z,23.3
2023-05-14T08:50:16.820Z,23.3
2023-05-14T08:51:23.380Z,23.3
2023-05-14T08:52:29.912Z,23.3
2023-05-14T08:53:36.448Z,23.3
2023-05-14T08:54:42.989Z,23.3
2023-05-14T08:55:49.535Z,23.3
2023-05-14T08:56:56.252Z,23.3
2023-05-14T08:58:03.064Z,23.4
2023-05-14T08:59:09.809Z,23.4
2023-05-14T09:00:16.584Z,23.4
2023-05-14T09:01:23.375Z,23.4
2023-05-14T09:02:30.169Z,23.4
2023-05-14T09:03:36.917Z,23.4
2023-05-14T09:04:43.693Z,23.4
2023-05-14T09:05:50.490Z,23.4
2023-05-14T09:06:57.267Z,23.4
2023-05-14T09:08:04.048Z,23.4
2023-05-14T09:09:10.856Z,23.4
2023-05-14T09:10:17.588Z,23.5
2023-05-14T09:12:57.970Z,23.4
2023-05-14T09:14:36.693Z,23.5
2023-05-14T09:16:15.428Z,23.5
2023-05-14T09:17:54.174Z,23.5
2023-05-14T09:19:01.417Z,23.5
2023-05-14T09:20:08.696Z,23.5
2023-05-14T09:21:47.427Z,23.5
2023-05-14T09:23:26.150Z,23.5
2023-05-14T09:25:04.895Z,23.6
2023-05-14T09:26:43.622Z,23.6
2023-05-14T09:28:22.368Z,23.6
2023-05-14T09:30:01.103Z,23.6
2023-05-14T09:31:39.838Z,23.6
2023-05-14T09:35:29.502Z,23.6
2023-05-14T09:36:36.300Z,23.7
2023-05-14T09:37:43.063Z,23.7
2023-05-14T09:38:49.847Z,23.7
2023-05-14T09:39:56.628Z,23.7
2023-05-14T09:41:03.411Z,23.7
2023-05-14T09:42:10.184Z,23.7
2023-05-14T09:43:16.962Z,23.8
2023-05-14T09:44:23.776Z,23.8
2023-05-14T09:45:30.723Z,23.8
2023-05-14T09:46:37.349Z,23.8
2023-05-14T09:47:44.212Z,23.8
2023-05-14T09:48:50.965Z,23.8
2023-05-14T09:49:57.638Z,23.8
2023-05-14T09:51:04.466Z,23.8
2023-05-14T09:52:11.196Z,23.8
2023-05-14T09:53:17.950Z,23.8
2023-05-14T09:54:24.802Z,23.9
2023-05-14T09:55:31.562Z,23.9
2023-05-14T09:56:38.282Z,23.9
2023-05-14T09:57:45.066Z,23.9
2023-05-14T09:58:51.952Z,23.9
2023-05-14T09:59:58.751Z,23.9
2023-05-14T10:01:05.416Z,23.9
2023-05-14T10:02:12.171Z,23.9
2023-05-14T10:03:19.036Z,24
2023-05-14T10:05:31.182Z,24
2023-05-14T10:07:09.889Z,24
2023-05-14T10:08:22.436Z,24
2023-05-14T10:09:29.737Z,24
2023-05-14T10:11:08.416Z,24
2023-05-14T10:12:47.164Z,24.1
2023-05-14T10:14:25.902Z,24.1
2023-05-14T10:16:04.700Z,24.1
2023-05-14T10:17:43.397Z,24.1
2023-05-14T10:19:22.166Z,24.1
2023-05-14T10:21:00.843Z,24.1
2023-05-14T10:22:39.622Z,24.1
2023-05-14T10:24:18.371Z,24.2
2023-05-14T10:25:58.069Z,24.2
2023-05-14T10:29:15.489Z,24.2
2023-05-14T10:32:31.410Z,24.2
2023-05-14T10:33:38.194Z,24.3
2023-05-14T10:34:44.952Z,24.3
2023-05-14T10:35:51.754Z,24.3
2023-05-14T10:36:58.514Z,24.3
2023-05-14T10:38:05.289Z,24.3
2023-05-14T10:39:12.061Z,24.3
2023-05-14T10:40:18.840Z,24.3
2023-05-14T10:41:25.703Z,24.4
2023-05-14T10:42:32.428Z,24.4
2023-05-14T10:43:39.176Z,24.4
2023-05-14T10:44:45.956Z,24.4
2023-05-14T10:45:52.730Z,24.4
2023-05-14T10:46:59.508Z,24.4
2023-05-14T10:48:06.391Z,24.4
2023-05-14T10:49:13.062Z,24.4
2023-05-14T10:50:19.880Z,24.4
2023-05-14T10:51:26.781Z,24.5
2023-05-14T10:52:33.459Z,24.5
2023-05-14T10:53:40.180Z,24.5
2023-05-14T10:54:46.947Z,24.5
2023-05-14T10:55:53.738Z,24.5
2023-05-14T10:57:00.497Z,24.5
2023-05-14T10:58:07.268Z,24.5
2023-05-14T10:59:14.043Z,24.5
2023-05-14T11:00:47.691Z,24.5
2023-05-14T11:02:26.303Z,24.6
2023-05-14T11:04:05.133Z,24.6
2023-05-14T11:05:43.783Z,24.6
2023-05-14T11:07:22.521Z,24.6
2023-05-14T11:08:29.773Z,24.6
2023-05-14T11:09:37.070Z,24.6
2023-05-14T11:11:15.761Z,24.7
2023-05-14T11:12:54.514Z,24.7
2023-05-14T11:14:33.250Z,24.7
2023-05-14T11:16:11.982Z,24.7
2023-05-14T11:17:50.729Z,24.7
2023-05-14T11:19:29.463Z,24.6
2023-05-14T11:23:37.521Z,24.6
2023-05-14T11:24:56.835Z,24.7
2023-05-14T11:26:53.958Z,24.7
2023-05-14T11:28:32.669Z,24.7
2023-05-14T11:30:11.420Z,24.7
2023-05-14T11:31:50.151Z,24.7
2023-05-14T11:33:28.911Z,24.7
2023-05-14T11:35:07.642Z,24.8
2023-05-14T11:36:46.373Z,24.8
2023-05-14T11:38:25.111Z,24.8
2023-05-14T11:40:03.847Z,24.8
2023-05-14T11:41:42.600Z,24.8
2023-05-14T11:42:49.845Z,24.8
2023-05-14T11:43:57.094Z,24.8
2023-05-14T11:45:35.899Z,24.8
2023-05-14T11:47:14.571Z,24.9
2023-05-14T11:48:53.308Z,24.9
2023-05-14T11:50:32.049Z,24.9
2023-05-14T11:52:10.828Z,24.9
2023-05-14T11:53:49.547Z,24.9
2023-05-14T11:55:28.320Z,24.9
2023-05-14T11:57:07.008Z,25
2023-05-14T11:58:45.742Z,25
2023-05-14T11:59:52.993Z,25
2023-05-14T12:01:00.242Z,25
2023-05-14T12:02:39.042Z,25
2023-05-14T12:06:47.010Z,25.1
2023-05-14T12:10:03.604Z,25
2023-05-14T12:11:58.576Z,25
2023-05-14T12:13:37.297Z,25.1
2023-05-14T12:15:16.078Z,25.1
2023-05-14T12:16:23.244Z,25.1
2023-05-14T12:17:30.446Z,25.1
2023-05-14T12:19:09.169Z,25.1
2023-05-14T12:20:47.920Z,25.1
2023-05-14T12:22:26.690Z,25.1
2023-05-14T12:24:05.478Z,25.1
2023-05-14T12:25:44.133Z,25.1
2023-05-14T12:27:22.887Z,25.1
2023-05-14T12:29:01.634Z,25
2023-05-14T12:30:40.349Z,25
2023-05-14T12:32:19.095Z,25.1
2023-05-14T12:33:26.435Z,25.1
2023-05-14T12:34:33.597Z,25
2023-05-14T12:36:12.326Z,25
2023-05-14T12:37:51.116Z,25
2023-05-14T12:39:29.819Z,25
2023-05-14T12:41:08.573Z,25
2023-05-14T12:42:47.256Z,25.1
2023-05-14T12:44:25.991Z,25.1
2023-05-14T12:46:04.736Z,25.1
2023-05-14T12:47:43.481Z,25.1
2023-05-14T12:49:54.358Z,25.1
2023-05-14T12:51:50.022Z,25.1
2023-05-14T12:52:56.753Z,25.1
2023-05-14T12:54:03.485Z,25.1
2023-05-14T12:55:10.252Z,25.1
2023-05-14T12:56:16.988Z,25.1
2023-05-14T12:57:23.692Z,25.2
2023-05-14T12:58:30.495Z,25.2
2023-05-14T12:59:37.252Z,25.2
2023-05-14T13:00:44.035Z,25.2
2023-05-14T13:01:50.813Z,25.2
2023-05-14T13:02:57.747Z,25.3
2023-05-14T13:04:04.350Z,25.3
2023-05-14T13:05:11.077Z,25.3
2023-05-14T13:06:17.863Z,25.3
2023-05-14T13:07:24.703Z,25.3
2023-05-14T13:08:31.440Z,25.3
2023-05-14T13:09:38.201Z,25.4
2023-05-14T13:10:44.983Z,25.3
2023-05-14T13:11:51.749Z,25.4
2023-05-14T13:12:58.534Z,25.4
2023-05-14T13:14:05.312Z,25.4
2023-05-14T13:15:12.105Z,25.4
2023-05-14T13:16:18.813Z,25.4
2023-05-14T13:17:25.585Z,25.4
2023-05-14T13:18:32.367Z,25.5
2023-05-14T13:20:44.586Z,25.5
2023-05-14T13:22:23.321Z,25.5
2023-05-14T13:23:30.570Z,25.5
2023-05-14T13:24:37.828Z,25.5
2023-05-14T13:26:16.560Z,25.5
2023-05-14T13:27:55.334Z,25.5
2023-05-14T13:29:34.045Z,25.5
2023-05-14T13:31:12.785Z,25.5
2023-05-14T13:32:51.532Z,25.5
2023-05-14T13:34:30.261Z,25.5
2023-05-14T13:36:08.995Z,25.5
2023-05-14T13:37:47.746Z,25.5
2023-05-14T13:39:26.474Z,25.5
2023-05-14T13:41:06.224Z,25.5
2023-05-14T13:44:22.158Z,25.5
2023-05-14T13:45:28.929Z,25.5
2023-05-14T13:46:35.704Z,25.5
2023-05-14T13:47:42.660Z,25.5
2023-05-14T13:48:49.420Z,25.5
2023-05-14T13:49:56.195Z,25.4
2023-05-14T13:51:02.950Z,25.4
2023-05-14T13:52:09.663Z,25.4
2023-05-14T13:53:16.359Z,25.4
2023-05-14T13:54:23.250Z,25.4
2023-05-14T13:55:30.030Z,25.4
2023-05-14T13:56:36.865Z,25.5
2023-05-14T13:57:43.698Z,25.4
2023-05-14T13:58:50.245Z,25.4
2023-05-14T13:59:57.141Z,25.4
2023-05-14T14:01:03.854Z,25.4
2023-05-14T14:02:10.499Z,25.4
2023-05-14T14:03:17.246Z,25.4
2023-05-14T14:04:24.039Z,25.4
2023-05-14T14:05:30.806Z,25.4
2023-05-14T14:06:37.717Z,25.4
2023-05-14T14:07:44.394Z,25.4
2023-05-14T14:08:51.312Z,25.3
2023-05-14T14:09:57.912Z,25.4
2023-05-14T14:11:04.755Z,25.4
2023-05-14T14:13:16.985Z,25.4
2023-05-14T14:14:24.171Z,25.3
2023-05-14T14:15:31.431Z,25.3
2023-05-14T14:17:10.282Z,25.3
2023-05-14T14:18:48.894Z,25.3
2023-05-14T14:20:27.656Z,25.3
2023-05-14T14:22:06.374Z,25.3
2023-05-14T14:23:45.236Z,25.3
2023-05-14T14:25:23.854Z,25.3
2023-05-14T14:27:02.594Z,25.3
2023-05-14T14:28:41.496Z,25.3
2023-05-14T14:30:20.215Z,25.2
2023-05-14T14:31:27.511Z,25.2
2023-05-14T14:34:28.138Z,25.2
2023-05-14T14:37:44.044Z,25.2
2023-05-14T14:38:50.820Z,25.2
2023-05-14T14:39:57.609Z,25.2
2023-05-14T14:41:04.407Z,25.2
2023-05-14T14:42:11.181Z,25.2
2023-05-14T14:43:17.937Z,25.2
2023-05-14T14:44:24.750Z,25.2
2023-05-14T14:45:31.497Z,25.2
2023-05-14T14:46:38.280Z,25.2
2023-05-14T14:47:45.039Z,25.2
2023-05-14T14:48:51.926Z,25.2
2023-05-14T14:49:58.645Z,25.2
2023-05-14T14:51:05.412Z,25.2
2023-05-14T14:52:12.227Z,25.2
2023-05-14T14:53:18.967Z,25.2
2023-05-14T14:54:25.716Z,25.2
2023-05-14T14:55:32.496Z,25.2
2023-05-14T14:56:39.365Z,25.2
2023-05-14T14:57:46.078Z,25.2
2023-05-14T14:58:52.855Z,25.2
2023-05-14T14:59:59.763Z,25.2
2023-05-14T15:01:06.492Z,25.2
2023-05-14T15:02:13.176Z,25.2
2023-05-14T15:03:19.963Z,25.2
2023-05-14T15:04:26.766Z,25.2
2023-05-14T15:06:00.115Z,25.2
2023-05-14T15:07:07.433Z,25.2
2023-05-14T15:08:46.080Z,25.2
2023-05-14T15:10:24.838Z,25.2
2023-05-14T15:12:03.555Z,25.2
2023-05-14T15:13:42.289Z,25.2
2023-05-14T15:15:21.032Z,25.2
2023-05-14T15:16:59.778Z,25.2
2023-05-14T15:18:38.607Z,25.2
2023-05-14T15:20:17.248Z,25.2
2023-05-14T15:21:55.993Z,25.2
2023-05-14T15:23:03.255Z,25.2
2023-05-14T15:24:10.488Z,25.2
2023-05-14T15:28:18.569Z,25.2
2023-05-14T15:31:35.957Z,25.2
2023-05-14T15:34:51.879Z,25.2
2023-05-14T15:35:58.655Z,25.2
2023-05-14T15:37:05.464Z,25.1
2023-05-14T15:38:12.160Z,25.1
2023-05-14T15:39:18.877Z,25.1
2023-05-14T15:40:25.606Z,25.1
2023-05-14T15:41:32.363Z,25.1
2023-05-14T15:42:39.072Z,25.1
2023-05-14T15:43:45.761Z,25.1
2023-05-14T15:44:52.516Z,25.1
2023-05-14T15:45:59.199Z,25.1
2023-05-14T15:47:05.926Z,25.1
2023-05-14T15:48:12.644Z,25.1
2023-05-14T15:49:19.357Z,25.1
2023-05-14T15:50:26.128Z,25.1
2023-05-14T15:51:32.876Z,25.1
2023-05-14T15:52:39.523Z,25.1
2023-05-14T15:53:46.240Z,25.1
2023-05-14T15:54:53.033Z,25.1
2023-05-14T15:55:59.680Z,25.1
2023-05-14T15:57:06.490Z,25.1
2023-05-14T15:58:13.154Z,25.1
2023-05-14T15:59:19.844Z,25.1
2023-05-14T16:00:26.685Z,25.1
2023-05-14T16:01:33.481Z,25
2023-05-14T16:03:45.622Z,25.1
2023-05-14T16:05:24.366Z,25
2023-05-14T16:06:31.649Z,25
2023-05-14T16:07:38.840Z,25
2023-05-14T16:09:17.579Z,25
2023-05-14T16:10:56.322Z,25
2023-05-14T16:12:35.046Z,25
2023-05-14T16:14:13.818Z,25
2023-05-14T16:15:52.607Z,25
2023-05-14T16:17:31.344Z,25
2023-05-14T16:19:09.955Z,25
2023-05-14T16:20:48.713Z,25
2023-05-14T16:22:27.489Z,25
2023-05-14T16:24:07.170Z,25
2023-05-14T16:27:23.068Z,25
2023-05-14T16:28:29.841Z,25
2023-05-14T16:29:36.618Z,25
2023-05-14T16:30:43.449Z,24.9
2023-05-14T16:31:50.159Z,24.9
2023-05-14T16:32:56.967Z,24.9
2023-05-14T16:34:03.807Z,24.9
2023-05-14T16:35:10.509Z,24.9
2023-05-14T16:36:17.279Z,24.9
2023-05-14T16:37:24.070Z,24.9
2023-05-14T16:38:30.922Z,24.9
2023-05-14T16:39:37.619Z,24.9
2023-05-14T16:40:44.379Z,24.9
2023-05-14T16:41:51.160Z,24.9
2023-05-14T16:42:57.973Z,24.9
2023-05-14T16:44:04.714Z,24.9
2023-05-14T16:45:11.496Z,24.9
2023-05-14T16:46:18.269Z,24.9
2023-05-14T16:47:25.056Z,24.9
2023-05-14T16:48:31.844Z,24.9
2023-05-14T16:49:38.632Z,24.9
2023-05-14T16:50:45.475Z,24.9
2023-05-14T16:51:52.165Z,24.8
2023-05-14T16:52:58.941Z,24.9
2023-05-14T16:54:05.721Z,24.9
2023-05-14T16:56:17.939Z,24.9
2023-05-14T16:57:25.183Z,24.8
2023-05-14T16:58:32.451Z,24.8
2023-05-14T17:00:11.182Z,24.8
2023-05-14T17:01:49.924Z,24.8
2023-05-14T17:03:28.700Z,24.8
2023-05-14T17:05:07.407Z,24.8
2023-05-14T17:06:46.140Z,24.8
2023-05-14T17:08:24.874Z,24.8
2023-05-14T17:10:03.620Z,24.8
2023-05-14T17:11:42.338Z,24.8
2023-05-14T17:13:21.089Z,24.8
2023-05-14T17:14:28.360Z,24.8
2023-05-14T17:17:29.154Z,24.8
2023-05-14T17:20:45.693Z,24.7
2023-05-14T17:22:40.676Z,24.7
2023-05-14T17:24:19.425Z,24.7
2023-05-14T17:25:58.151Z,24.7
2023-05-14T17:27:36.914Z,24.7
2023-05-14T17:29:15.621Z,24.7
2023-05-14T17:30:54.368Z,24.7
2023-05-14T17:32:01.635Z,24.7
2023-05-14T17:33:08.911Z,24.7
2023-05-14T17:34:47.599Z,24.7
2023-05-14T17:36:26.442Z,24.7
2023-05-14T17:38:05.103Z,24.7
2023-05-14T17:39:43.808Z,24.7
2023-05-14T17:41:22.549Z,24.7
2023-05-14T17:43:01.279Z,24.6
2023-05-14T17:44:40.036Z,24.6
2023-05-14T17:46:18.836Z,24.6
2023-05-14T17:47:57.498Z,24.6
2023-05-14T17:49:04.748Z,24.6
2023-05-14T17:50:11.989Z,24.6
2023-05-14T17:51:50.756Z,24.6
2023-05-14T17:53:29.465Z,24.6
2023-05-14T17:55:08.209Z,24.6
2023-05-14T17:56:46.948Z,24.6
2023-05-14T17:58:25.684Z,24.6
2023-05-14T18:02:33.724Z,24.6
2023-05-14T18:05:31.285Z,24.6
2023-05-14T18:06:38.139Z,24.6
2023-05-14T18:07:44.860Z,24.6
2023-05-14T18:08:51.672Z,24.5
2023-05-14T18:09:58.399Z,24.5
2023-05-14T18:11:05.163Z,24.6
2023-05-14T18:12:11.947Z,24.6
2023-05-14T18:13:18.713Z,24.6
2023-05-14T18:14:25.531Z,24.5
2023-05-14T18:15:32.287Z,24.5
2023-05-14T18:16:39.042Z,24.5
2023-05-14T18:17:45.806Z,24.5
2023-05-14T18:18:52.589Z,24.5
2023-05-14T18:19:59.366Z,24.5
2023-05-14T18:21:06.131Z,24.5
2023-05-14T18:22:12.912Z,24.5
2023-05-14T18:23:19.725Z,24.5
2023-05-14T18:24:26.521Z,24.5
2023-05-14T18:25:33.242Z,24.5
2023-05-14T18:26:40.028Z,24.5
2023-05-14T18:27:46.806Z,24.5
2023-05-14T18:28:53.579Z,24.5
2023-05-14T18:30:00.376Z,24.5
2023-05-14T18:31:07.183Z,24.5
2023-05-14T18:32:13.916Z,24.5
2023-05-14T18:33:47.857Z,24.5
2023-05-14T18:35:26.614Z,24.5
2023-05-14T18:37:05.311Z,24.5
2023-05-14T18:38:44.095Z,24.5
2023-05-14T18:40:22.795Z,24.5
2023-05-14T18:41:30.045Z,24.5
2023-05-14T18:42:37.306Z,24.5
2023-05-14T18:44:16.037Z,24.5
2023-05-14T18:45:54.779Z,24.5
2023-05-14T18:47:33.502Z,24.4
2023-05-14T18:49:12.242Z,24.4
2023-05-14T18:50:50.976Z,24.4
2023-05-14T18:52:29.726Z,24.4
2023-05-14T18:56:37.760Z,24.4
2023-05-14T18:57:56.594Z,24.4
2023-05-14T18:59:53.791Z,24.4
2023-05-14T19:01:00.541Z,24.4
2023-05-14T19:02:07.270Z,24.4
2023-05-14T19:03:14.153Z,24.4
2023-05-14T19:04:20.848Z,24.4
2023-05-14T19:05:27.678Z,24.4
2023-05-14T19:07:41.175Z,24.4
2023-05-14T19:08:47.891Z,24.4
2023-05-14T19:09:54.665Z,24.4
2023-05-14T19:11:01.452Z,24.4
2023-05-14T19:12:08.234Z,24.4
2023-05-14T19:13:15.024Z,24.4
2023-05-14T19:14:21.952Z,24.4
2023-05-14T19:15:28.740Z,24.4